Time;durP1;ratioP1;P1;durP2;ratioP2;P2;SDS_P1;SDS_P2;PMS_P1;PMS_P2;Temp;Humidity;BMP_temperature;BMP_pressure;BME280_temperature;BME280_humidity;BME280_pressure;Samples;Min_cycle;Max_cycle;Signal;HPM_P1;HPM_P2
2021/12/19 00:03:18;;;;;;;14.88;6.88;;;;;;;1.50;100.00;100101.88;12779850;23;20017;-86
2021/12/19 00:08:34;;;;;;;14.80;6.28;;;;;;;1.51;100.00;100098.19;12819536;23;20065;-80
2021/12/19 00:13:40;;;;;;;13.02;5.38;;;;;;;1.53;100.00;100091.66;12785066;23;20048;-85
2021/12/19 00:18:43;;;;;;;13.23;5.57;;;;;;;1.37;100.00;100082.47;12785674;23;20444;-86
2021/12/19 00:23:52;;;;;;;14.60;6.13;;;;;;;1.40;100.00;100067.97;12810942;23;20028;-85
2021/12/19 00:29:05;;;;;;;13.77;6.47;;;;;;;1.41;100.00;100074.88;12760699;23;20028;-86
2021/12/19 00:34:15;;;;;;;15.45;6.95;;;;;;;1.47;100.00;100075.84;12798066;23;20017;-84
2021/12/19 00:39:18;;;;;;;10.70;5.85;;;;;;;1.41;100.00;100075.69;12821894;23;20455;-84
2021/12/19 00:44:33;;;;;;;16.55;7.13;;;;;;;1.40;100.00;100074.06;12745808;23;20025;-82
2021/12/19 00:49:40;;;;;;;18.85;8.48;;;;;;;1.40;100.00;100075.91;12820004;23;20024;-82
2021/12/19 00:54:54;;;;;;;16.83;7.57;;;;;;;1.33;100.00;100065.38;12827755;23;20017;-85
2021/12/19 01:00:03;;;;;;;16.48;6.38;;;;;;;1.49;100.00;100073.78;12839795;23;20584;-82
2021/12/19 01:05:05;;;;;;;12.32;5.82;;;;;;;1.60;100.00;100079.16;12814087;23;20008;-82
2021/12/19 01:10:11;;;;;;;14.02;5.97;;;;;;;1.59;100.00;100063.50;12848703;23;20068;-87
2021/12/19 01:15:16;;;;;;;12.90;6.07;;;;;;;1.68;100.00;100057.69;12826414;23;20013;-86
2021/12/19 01:20:22;;;;;;;12.38;6.03;;;;;;;1.70;100.00;100052.19;12829244;23;20020;-83
2021/12/19 01:25:25;;;;;;;11.85;5.93;;;;;;;1.77;100.00;100049.47;12846623;23;20068;-83
2021/12/19 01:35:42;;;;;;;11.93;5.63;;;;;;;1.74;100.00;100055.19;12846371;23;19912;-82
2021/12/19 01:40:42;;;;;;;13.27;5.95;;;;;;;1.77;100.00;100057.41;12808495;23;20017;-83
2021/12/19 01:45:48;;;;;;;16.58;6.30;;;;;;;1.79;100.00;100050.84;12807595;23;20073;-81
2021/12/19 01:50:52;;;;;;;12.95;6.20;;;;;;;1.78;100.00;100046.59;12795042;23;20044;-85
2021/12/19 01:56:16;;;;;;;10.02;5.72;;;;;;;1.76;100.00;100042.56;12811788;23;20021;-82
2021/12/19 02:01:51;;;;;;;16.05;6.07;;;;;;;1.91;100.00;100030.53;12836857;23;20017;-85
2021/12/19 02:07:26;;;;;;;13.07;5.90;;;;;;;1.95;100.00;100026.44;12824727;23;20017;-90
2021/12/19 02:13:26;;;;;;;11.93;6.00;;;;;;;1.99;100.00;100021.47;12857144;23;20031;-84
2021/12/19 02:19:26;;;;;;;11.57;5.28;;;;;;;1.95;100.00;100004.44;12850570;23;20064;-85
2021/12/19 02:31:28;;;;;;;11.30;5.65;;;;;;;2.07;100.00;99988.59;12856470;23;20053;-83
2021/12/19 02:48:56;;;;;;;11.23;5.05;;;;;;;2.12;100.00;99981.59;12856284;23;20012;-81
2021/12/19 02:54:14;;;;;;;10.73;5.40;;;;;;;2.02;100.00;99997.22;12807996;23;20052;-83
2021/12/19 02:59:50;;;;;;;;;;;;;;;;;;;;;
2021/12/19 03:23:06;;;;;;;9.40;5.32;;;;;;;2.24;100.00;99942.69;12750571;23;20018;-82
2021/12/19 03:28:52;;;;;;;10.05;5.25;;;;;;;2.18;100.00;99935.63;12737875;23;20024;-84
2021/12/19 03:39:44;;;;;;;;;;;;;;;;;;;;;
2021/12/19 03:45:25;;;;;;;13.90;6.32;;;;;;;2.17;100.00;99925.28;12852030;23;20009;-83
2021/12/19 04:02:28;;;;;;;11.40;5.90;;;;;;;2.23;100.00;99929.69;12749016;23;20036;-82
2021/12/19 04:12:56;;;;;;;13.82;5.88;;;;;;;2.26;100.00;99902.72;12831225;23;20024;-83
2021/12/19 04:18:17;;;;;;;13.50;5.63;;;;;;;2.30;100.00;99901.25;12812607;23;20096;-89
2021/12/19 04:23:43;;;;;;;;;;;;;;;;;;;;;
2021/12/19 04:28:44;;;;;;;13.43;6.40;;;;;;;2.19;100.00;99886.94;12833198;23;20055;-81
2021/12/19 04:34:26;;;;;;;14.45;6.15;;;;;;;2.24;100.00;99897.66;12826698;23;20023;-82
2021/12/19 05:16:55;;;;;;;13.98;5.97;;;;;;;2.11;100.00;99858.16;12787836;23;20030;-85
2021/12/19 05:22:06;;;;;;;14.80;6.05;;;;;;;2.20;100.00;99848.03;12786816;23;20021;-85
2021/12/19 05:27:58;;;;;;;;;;;;;;;;;;;;;
2021/12/19 05:33:34;;;;;;;11.93;7.25;;;;;;;2.28;100.00;99855.59;12825250;23;20013;-82
2021/12/19 05:49:34;;;;;;;14.63;6.50;;;;;;;2.25;100.00;99851.59;12539978;23;20063;-82
2021/12/19 05:54:35;;;;;;;14.93;6.95;;;;;;;2.27;100.00;99846.84;12575234;23;20034;-82
2021/12/19 05:59:37;;;;;;;11.75;7.00;;;;;;;2.34;100.00;99840.66;12623406;23;20015;-85
2021/12/19 06:05:14;;;;;;;13.93;7.05;;;;;;;2.30;100.00;99842.16;12909406;23;20017;-85
2021/12/19 06:10:43;;;;;;;12.60;6.82;;;;;;;2.31;100.00;99831.31;12884299;22;20013;-86
2021/12/19 06:15:44;;;;;;;13.10;7.63;;;;;;;2.41;100.00;99834.19;12893673;22;20020;-82
2021/12/19 06:20:55;;;;;;;12.35;7.15;;;;;;;2.32;100.00;99829.47;12910910;23;20035;-83
2021/12/19 06:26:33;;;;;;;15.00;8.23;;;;;;;2.42;100.00;99825.22;12903564;23;20020;-84
2021/12/19 06:32:16;;;;;;;14.15;7.63;;;;;;;2.37;100.00;99822.44;12863179;23;20039;-85
2021/12/19 06:38:07;;;;;;;;;;;;;;;;;;;;;
2021/12/19 06:44:23;;;;;;;13.82;7.65;;;;;;;2.43;100.00;99820.72;12919098;22;20063;-81
2021/12/19 06:49:43;;;;;;;13.98;8.15;;;;;;;2.39;100.00;99822.22;12907245;22;20017;-83
2021/12/19 06:54:47;;;;;;;14.13;7.97;;;;;;;2.48;100.00;99818.19;12884374;23;20063;-85
2021/12/19 07:00:05;;;;;;;15.65;9.13;;;;;;;2.51;100.00;99820.38;12883714;23;20004;-81
2021/12/19 07:05:23;;;;;;;14.98;9.70;;;;;;;2.44;100.00;99823.13;12885269;23;20017;-83
2021/12/19 07:10:56;;;;;;;13.93;8.52;;;;;;;2.50;100.00;99827.50;12863753;23;20039;-84
2021/12/19 07:16:15;;;;;;;15.95;8.80;;;;;;;2.48;100.00;99820.84;12854651;23;20020;-84
2021/12/19 07:21:43;;;;;;;14.95;9.38;;;;;;;2.45;100.00;99806.19;12891728;22;20098;-85
2021/12/19 07:26:56;;;;;;;13.60;8.15;;;;;;;2.56;100.00;99802.75;12885261;23;20028;-82
2021/12/19 07:32:07;;;;;;;15.85;8.98;;;;;;;2.59;100.00;99801.47;12888096;23;20036;-84
2021/12/19 07:37:52;;;;;;;;;;;;;;;;;;;;;
2021/12/19 07:42:58;;;;;;;12.88;7.97;;;;;;;2.45;100.00;99778.88;12903066;22;20016;-83
2021/12/19 07:48:33;;;;;;;13.02;8.07;;;;;;;2.52;100.00;99792.81;12876998;23;20024;-88
2021/12/19 07:54:26;;;;;;;12.85;8.45;;;;;;;2.56;100.00;99778.91;12909346;22;20024;-81
2021/12/19 08:00:14;;;;;;;13.77;8.68;;;;;;;2.69;100.00;99779.66;12916284;22;20023;-84
2021/12/19 08:15:56;;;;;;;16.20;9.70;;;;;;;2.72;100.00;99756.13;12912372;22;20508;-88
2021/12/19 08:21:03;;;;;;;16.90;9.75;;;;;;;2.67;100.00;99740.16;12911700;22;20056;-83
2021/12/19 08:26:14;;;;;;;15.73;9.55;;;;;;;2.71;100.00;99733.31;12912315;22;20032;-81
2021/12/19 08:37:57;;;;;;;15.85;9.95;;;;;;;2.95;100.00;99723.44;12883118;23;20020;-82
2021/12/19 08:43:24;;;;;;;17.15;9.73;;;;;;;2.96;100.00;99722.41;12886559;23;20009;-82
2021/12/19 09:06:16;;;;;;;19.90;12.05;;;;;;;3.00;100.00;99712.09;12897397;23;20021;-83
2021/12/19 09:11:44;;;;;;;23.60;12.50;;;;;;;2.97;100.00;99700.13;12890753;23;20017;-84
2021/12/19 09:16:56;;;;;;;21.87;11.93;;;;;;;3.13;100.00;99698.56;12909907;22;20012;-84
2021/12/19 09:34:14;;;;;;;24.45;13.13;;;;;;;3.06;100.00;99687.28;12890988;23;20080;-81
2021/12/19 09:39:25;;;;;;;23.77;13.43;;;;;;;3.01;100.00;99690.66;12876659;23;20026;-80
2021/12/19 09:50:15;;;;;;;25.25;13.95;;;;;;;3.05;100.00;99683.84;12895484;23;20024;-83
2021/12/19 09:55:25;;;;;;;19.67;12.35;;;;;;;3.12;100.00;99657.16;12883629;23;20017;-82
2021/12/19 10:00:44;;;;;;;22.05;12.23;;;;;;;3.20;100.00;99651.47;12893306;23;20008;-82
2021/12/19 10:17:41;;;;;;;22.02;13.68;;;;;;;3.10;100.00;99635.34;12904502;22;20103;-81
2021/12/19 10:22:46;;;;;;;21.67;13.40;;;;;;;3.24;100.00;99628.72;12862190;23;20024;-80
2021/12/19 10:34:35;;;;;;;18.50;11.15;;;;;;;3.17;100.00;99609.50;12917697;22;20020;-81
2021/12/19 10:39:39;;;;;;;19.45;12.00;;;;;;;3.21;100.00;99597.38;12902030;23;20020;-81
2021/12/19 10:50:08;;;;;;;20.25;12.50;;;;;;;3.25;100.00;99576.44;12882246;23;20013;-84
2021/12/19 10:55:14;;;;;;;22.83;14.02;;;;;;;3.27;100.00;99577.81;12889323;23;20088;-80
2021/12/19 11:00:39;;;;;;;22.85;12.68;;;;;;;3.18;100.00;99559.88;12891394;23;20020;-85
2021/12/19 11:05:43;;;;;;;24.83;13.57;;;;;;;3.17;100.00;99553.78;12913130;22;20032;-80
2021/12/19 11:16:18;;;;;;;19.40;12.18;;;;;;;3.29;100.00;99543.06;12908588;22;20004;-81
2021/12/19 11:21:24;;;;;;;;;;;;;;;3.24;100.00;99533.19;12909837;22;20020;-80
2021/12/19 11:31:50;;;;;;;19.63;11.85;;;;;;;3.50;100.00;99494.53;12904962;23;20028;-84
2021/12/19 11:37:08;;;;;;;21.27;12.02;;;;;;;3.38;100.00;99496.50;12898828;23;20005;-81
2021/12/19 11:42:17;;;;;;;19.65;11.43;;;;;;;3.43;100.00;99481.44;12889605;23;20031;-83
2021/12/19 11:47:37;;;;;;;20.55;11.13;;;;;;;3.44;100.00;99479.59;12892595;23;20012;-84
2021/12/19 11:52:42;;;;;;;18.25;11.57;;;;;;;3.54;100.00;99469.09;12908736;22;19993;-83
2021/12/19 11:58:07;;;;;;;21.17;11.57;;;;;;;3.49;100.00;99453.13;12906910;23;20051;-82
2021/12/19 12:03:14;;;;;;;20.80;12.07;;;;;;;3.52;100.00;99443.88;12910251;23;20033;-84
2021/12/19 12:08:27;;;;;;;20.05;11.68;;;;;;;3.56;100.00;99434.34;12908535;23;20147;-85
2021/12/19 12:13:42;;;;;;;21.07;10.97;;;;;;;3.54;100.00;99423.97;12900366;22;20016;-84
2021/12/19 12:18:43;;;;;;;22.35;12.00;;;;;;;3.58;100.00;99424.31;12909484;22;20008;-85
2021/12/19 12:24:04;;;;;;;17.98;10.90;;;;;;;3.57;100.00;99412.88;12909750;22;20020;-81
2021/12/19 12:29:05;;;;;;;19.58;11.77;;;;;;;3.51;100.00;99395.28;12888909;23;20051;-83
2021/12/19 12:34:12;;;;;;;20.75;11.70;;;;;;;3.56;100.00;99395.31;12874501;23;20032;-85
2021/12/19 12:39:24;;;;;;;19.33;10.80;;;;;;;3.59;100.00;99378.91;12863028;23;20335;-83
2021/12/19 12:44:26;;;;;;;19.63;11.80;;;;;;;3.55;100.00;99372.50;12894346;23;20091;-81
2021/12/19 12:49:34;;;;;;;20.98;12.38;;;;;;;3.68;100.00;99347.41;12860667;23;20439;-80
2021/12/19 12:54:38;;;;;;;17.90;10.30;;;;;;;3.65;100.00;99340.72;12906197;22;20048;-81
2021/12/19 12:59:42;;;;;;;16.55;9.32;;;;;;;3.59;100.00;99335.66;12919200;22;20077;-84
2021/12/19 13:04:46;;;;;;;17.67;10.18;;;;;;;3.65;100.00;99335.44;12909159;22;20017;-79
2021/12/19 13:09:56;;;;;;;18.88;10.88;;;;;;;3.57;100.00;99330.59;12796539;23;20009;-79
2021/12/19 13:15:15;;;;;;;17.67;10.55;;;;;;;3.64;100.00;99325.06;12769238;23;20026;-80
2021/12/19 13:20:37;;;;;;;19.63;10.50;;;;;;;3.80;100.00;99326.00;12749511;23;20059;-82
2021/12/19 13:25:42;;;;;;;17.73;10.27;;;;;;;3.76;100.00;99325.72;12742528;23;20017;-81
2021/12/19 13:30:46;;;;;;;18.58;10.50;;;;;;;3.87;100.00;99318.63;12718502;23;20022;-80
2021/12/19 13:35:58;;;;;;;19.90;11.10;;;;;;;3.73;100.00;99315.59;12741994;23;20456;-82
2021/12/19 13:41:04;;;;;;;20.77;11.23;;;;;;;3.62;100.00;99314.69;12735746;23;20040;-79
2021/12/19 13:46:08;;;;;;;19.98;11.02;;;;;;;3.69;100.00;99307.34;12734628;23;20014;-82
2021/12/19 13:51:16;;;;;;;21.50;10.73;;;;;;;3.88;100.00;99305.09;12739023;23;20028;-81
2021/12/19 13:56:24;;;;;;;21.50;11.75;;;;;;;3.90;100.00;99312.81;12763961;23;20394;-83
2021/12/19 14:01:33;;;;;;;22.10;12.10;;;;;;;3.87;100.00;99302.72;12772692;23;20014;-82
2021/12/19 14:06:37;;;;;;;23.05;12.93;;;;;;;3.88;100.00;99294.47;12791670;23;19998;-85
2021/12/19 14:11:40;;;;;;;22.00;11.98;;;;;;;3.80;100.00;99289.63;12786291;23;20048;-77
2021/12/19 14:16:45;;;;;;;;;;;;;;;3.79;100.00;99289.88;12763997;23;19998;-84
2021/12/19 14:21:47;;;;;;;23.85;13.45;;;;;;;3.74;100.00;99284.53;12783994;23;19916;-81
2021/12/19 14:27:20;;;;;;;21.77;11.60;;;;;;;3.81;100.00;99282.47;12777481;23;20021;-83
2021/12/19 14:32:25;;;;;;;20.45;12.02;;;;;;;3.80;100.00;99284.31;12724227;23;20021;-82
2021/12/19 14:37:36;;;;;;;19.13;10.95;;;;;;;3.85;100.00;99283.56;12757409;23;20029;-85
2021/12/19 14:42:56;;;;;;;22.48;11.02;;;;;;;3.85;100.00;99292.34;12762966;23;20065;-86
2021/12/19 14:48:07;;;;;;;20.15;11.48;;;;;;;3.89;100.00;99298.72;12792681;23;20020;-82
2021/12/19 14:53:08;;;;;;;21.40;11.27;;;;;;;3.86;100.00;99298.44;12776424;23;20045;-83
2021/12/19 14:58:10;;;;;;;20.85;11.63;;;;;;;3.82;100.00;99284.88;12766858;23;20331;-82
2021/12/19 15:03:14;;;;;;;19.80;11.68;;;;;;;3.82;100.00;99265.47;12758066;23;20438;-83
2021/12/19 15:09:05;;;;;;;20.00;10.95;;;;;;;3.80;100.00;99283.53;12754010;23;20022;-83
2021/12/19 15:14:08;;;;;;;19.02;11.00;;;;;;;3.73;100.00;99275.75;12766747;23;20074;-84
2021/12/19 15:19:11;;;;;;;24.63;12.18;;;;;;;3.82;100.00;99266.28;12767277;23;20690;-82
2021/12/19 15:24:11;;;;;;;21.67;11.13;;;;;;;3.77;100.00;99271.56;12745458;23;20017;-81
2021/12/19 15:34:39;;;;;;;24.88;12.90;;;;;;;3.81;100.00;99261.22;12734087;23;20376;-81
2021/12/19 15:39:49;;;;;;;23.88;12.57;;;;;;;3.85;100.00;99252.50;12759549;23;20091;-82
2021/12/19 15:44:55;;;;;;;21.85;11.70;;;;;;;3.91;100.00;99253.31;12835661;23;20072;-81
2021/12/19 15:50:00;;;;;;;24.60;12.50;;;;;;;3.80;100.00;99241.03;12842445;23;20021;-81
2021/12/19 15:55:09;;;;;;;21.23;11.55;;;;;;;3.88;100.00;99240.56;12848404;23;20025;-84
2021/12/19 16:00:15;;;;;;;25.40;12.52;;;;;;;3.83;100.00;99251.94;12834706;23;20020;-80
2021/12/19 16:05:21;;;;;;;26.10;13.15;;;;;;;3.79;100.00;99242.09;12839272;23;20017;-79
2021/12/19 16:10:22;;;;;;;26.05;12.98;;;;;;;3.79;100.00;99252.72;12797732;23;20025;-82
2021/12/19 16:15:23;;;;;;;33.25;14.93;;;;;;;3.92;100.00;99231.81;12805897;23;20120;-85
2021/12/19 16:20:25;;;;;;;20.73;12.00;;;;;;;3.91;100.00;99222.25;12840483;23;20024;-84
2021/12/19 16:25:31;;;;;;;24.75;13.05;;;;;;;3.87;100.00;99215.06;12839070;23;20187;-82
2021/12/19 16:30:37;;;;;;;23.20;11.75;;;;;;;3.93;100.00;99211.38;12795972;23;20036;-81
2021/12/19 16:35:40;;;;;;;25.90;11.80;;;;;;;3.90;100.00;99209.25;12810267;23;20017;-81
2021/12/19 16:40:45;;;;;;;23.10;12.35;;;;;;;3.92;100.00;99212.44;12812094;23;20024;-81
2021/12/19 16:45:50;;;;;;;21.92;11.23;;;;;;;3.87;100.00;99217.72;12804435;23;20079;-82
2021/12/19 16:51:09;;;;;;;26.40;12.27;;;;;;;3.93;100.00;99204.25;12809953;23;20041;-85
2021/12/19 16:56:12;;;;;;;22.98;11.50;;;;;;;3.92;100.00;99217.75;12823085;23;20344;-85
2021/12/19 17:01:13;;;;;;;24.08;12.30;;;;;;;3.94;100.00;99208.50;12809901;23;20036;-79
2021/12/19 17:06:16;;;;;;;28.58;13.27;;;;;;;3.96;100.00;99209.03;12806836;23;20025;-81
2021/12/19 17:11:21;;;;;;;25.90;12.98;;;;;;;3.91;100.00;99208.19;12811252;23;20478;-80
2021/12/19 17:16:26;;;;;;;25.13;12.63;;;;;;;4.01;100.00;99200.28;12786905;23;20516;-83
2021/12/19 17:21:26;;;;;;;25.02;12.13;;;;;;;3.94;100.00;99199.72;12812692;23;20367;-81
2021/12/19 17:26:30;;;;;;;25.40;11.93;;;;;;;3.93;100.00;99203.41;12816259;23;20013;-82
2021/12/19 17:31:31;;;;;;;24.65;12.25;;;;;;;4.06;100.00;99197.66;12809080;23;20714;-82
2021/12/19 17:36:42;;;;;;;26.35;12.13;;;;;;;3.98;100.00;99192.81;12843416;23;20101;-79
2021/12/19 17:41:44;;;;;;;29.50;14.27;;;;;;;3.83;100.00;99200.69;12812494;23;20021;-78
2021/12/19 17:46:45;;;;;;;22.75;11.98;;;;;;;3.94;100.00;99211.16;12836910;23;20013;-83
2021/12/19 17:51:46;;;;;;;23.48;11.70;;;;;;;3.92;100.00;99213.22;12811769;23;20013;-80
2021/12/19 17:56:47;;;;;;;24.63;11.57;;;;;;;3.97;100.00;99209.81;12800769;23;20021;-80
2021/12/19 18:01:52;;;;;;;24.67;12.13;;;;;;;4.06;100.00;99205.63;12805610;23;20041;-82
2021/12/19 18:06:57;;;;;;;28.83;13.32;;;;;;;4.00;100.00;99214.63;12816827;23;20052;-83
2021/12/19 18:12:00;;;;;;;32.08;13.55;;;;;;;3.99;100.00;99224.44;12825798;23;20373;-82
2021/12/19 18:17:02;;;;;;;28.45;13.52;;;;;;;3.95;100.00;99217.25;12829423;23;20020;-81
2021/12/19 18:22:07;;;;;;;26.20;13.60;;;;;;;3.96;100.00;99222.31;12838113;23;20024;-85
2021/12/19 18:27:07;;;;;;;25.27;11.55;;;;;;;3.90;100.00;99225.19;12821538;23;20020;-83
2021/12/19 18:32:09;;;;;;;25.13;12.35;;;;;;;3.95;100.00;99225.22;12809641;23;20032;-82
2021/12/19 18:37:17;;;;;;;27.40;12.18;;;;;;;4.05;100.00;99230.59;12807276;23;20072;-82
2021/12/19 18:42:27;;;;;;;27.10;13.15;;;;;;;4.02;100.00;99233.75;12831879;23;20009;-80
2021/12/19 18:47:49;;;;;;;24.90;12.77;;;;;;;3.97;100.00;99229.22;12831631;23;20024;-81
2021/12/19 18:58:15;;;;;;;28.45;12.63;;;;;;;3.88;100.00;99235.25;12819697;23;20060;-83
2021/12/19 19:08:39;;;;;;;27.38;12.93;;;;;;;3.94;100.00;99242.22;12810478;23;20028;-81
2021/12/19 19:13:39;;;;;;;34.28;13.77;;;;;;;3.94;100.00;99243.00;12789883;23;20035;-81
2021/12/19 19:18:41;;;;;;;27.42;13.15;;;;;;;4.11;100.00;99242.03;12819767;23;20032;-85
2021/12/19 19:23:46;;;;;;;25.60;13.05;;;;;;;4.15;100.00;99243.13;12829868;23;20033;-80
2021/12/19 19:28:51;;;;;;;29.48;12.52;;;;;;;4.08;100.00;99242.56;12837670;23;20016;-82
2021/12/19 19:34:05;;;;;;;28.85;13.45;;;;;;;4.03;100.00;99235.38;12829479;23;20025;-80
2021/12/19 19:49:46;;;;;;;27.27;14.43;;;;;;;4.03;100.00;99238.03;12828013;23;20029;-80
2021/12/19 19:54:48;;;;;;;31.85;14.50;;;;;;;3.91;100.00;99240.84;12826285;23;20210;-81
2021/12/19 19:59:49;;;;;;;27.75;14.02;;;;;;;3.93;100.00;99240.59;12788264;23;20044;-80
2021/12/19 20:04:53;;;;;;;29.88;13.75;;;;;;;3.85;100.00;99215.34;12834606;23;20029;-78
2021/12/19 20:09:55;;;;;;;30.50;14.55;;;;;;;3.74;100.00;99224.25;12836306;23;20012;-87
2021/12/19 20:14:55;;;;;;;28.60;14.85;;;;;;;3.52;100.00;99229.69;12839894;23;20017;-80
2021/12/19 20:19:59;;;;;;;30.67;13.52;;;;;;;3.50;100.00;99231.00;12834487;23;20064;-80
2021/12/19 20:25:06;;;;;;;30.25;13.52;;;;;;;3.38;100.00;99231.13;12771967;23;20035;-80
2021/12/19 20:30:09;;;;;;;33.72;15.10;;;;;;;3.32;100.00;99232.97;12844008;23;20048;-83
2021/12/19 20:35:13;;;;;;;26.42;13.10;;;;;;;3.21;100.00;99225.97;12841249;23;20086;-82
2021/12/19 20:40:15;;;;;;;31.67;12.63;;;;;;;3.10;100.00;99226.91;12837058;23;20020;-79
2021/12/19 20:45:18;;;;;;;26.85;13.15;;;;;;;3.18;100.00;99226.44;12819356;23;20005;-80
2021/12/19 20:50:26;;;;;;;30.00;13.10;;;;;;;3.25;100.00;99232.34;12826847;23;20001;-78
2021/12/19 20:55:27;;;;;;;24.30;12.07;;;;;;;3.31;100.00;99231.38;12846328;23;20029;-82
2021/12/19 21:00:28;;;;;;;27.20;13.93;;;;;;;3.40;100.00;99229.84;12761406;23;20025;-82
2021/12/19 21:05:31;;;;;;;27.08;13.98;;;;;;;3.40;100.00;99216.59;12818693;23;20009;-87
2021/12/19 21:10:35;;;;;;;29.15;12.85;;;;;;;3.43;100.00;99231.19;12822519;23;20060;-80
2021/12/19 21:21:44;;;;;;;20.90;10.07;;;;;;;3.36;100.00;99225.28;12766672;23;20025;-81
2021/12/19 21:26:48;;;;;;;18.05;9.35;;;;;;;3.42;100.00;99218.97;12788390;23;20020;-80
2021/12/19 21:31:51;;;;;;;16.73;9.90;;;;;;;3.39;100.00;99208.88;12784180;23;20116;-83
2021/12/19 21:42:19;;;;;;;17.35;9.07;;;;;;;3.34;100.00;99190.25;12811580;23;20021;-83
2021/12/19 21:47:23;;;;;;;18.85;9.23;;;;;;;3.31;100.00;99198.72;12830597;23;20393;-80
2021/12/19 21:52:25;;;;;;;17.67;8.68;;;;;;;3.30;100.00;99195.28;12834269;23;20012;-84
2021/12/19 21:57:27;;;;;;;18.67;8.73;;;;;;;3.39;100.00;99199.06;12804798;23;20016;-83
2021/12/19 22:02:27;;;;;;;15.50;8.25;;;;;;;3.42;100.00;99201.22;12783884;23;20052;-81
2021/12/19 22:07:29;;;;;;;17.05;8.73;;;;;;;3.45;100.00;99199.88;12807865;23;20013;-84
2021/12/19 22:12:40;;;;;;;19.08;8.68;;;;;;;3.43;100.00;99192.19;12783911;23;20020;-80
2021/12/19 22:17:42;;;;;;;13.55;7.47;;;;;;;3.45;100.00;99186.63;12798336;23;20028;-80
2021/12/19 22:22:42;;;;;;;16.77;8.25;;;;;;;3.51;100.00;99198.88;12787619;23;20045;-83
2021/12/19 22:27:43;;;;;;;14.98;8.38;;;;;;;3.46;100.00;99193.53;12794458;23;20067;-83
2021/12/19 22:32:44;;;;;;;14.38;7.43;;;;;;;3.59;100.00;99190.47;12831893;23;20076;-81
2021/12/19 22:37:46;;;;;;;11.65;6.93;;;;;;;3.52;100.00;99173.94;12786022;23;20449;-80
2021/12/19 22:42:53;;;;;;;15.68;6.97;;;;;;;3.52;100.00;99173.94;12807283;23;20100;-80
2021/12/19 22:47:55;;;;;;;12.60;7.32;;;;;;;3.49;100.00;99174.47;12784211;23;20041;-82
2021/12/19 22:52:59;;;;;;;13.75;7.35;;;;;;;3.45;100.00;99167.25;12783873;23;20024;-83
2021/12/19 22:58:03;;;;;;;15.02;6.90;;;;;;;3.46;100.00;99163.53;12782198;23;20602;-81
2021/12/19 23:03:13;;;;;;;9.82;5.95;;;;;;;3.42;100.00;99142.81;12814665;23;20012;-81
2021/12/19 23:08:15;;;;;;;10.82;5.57;;;;;;;3.37;100.00;99141.97;12737017;23;20036;-84
2021/12/19 23:13:24;;;;;;;11.55;5.50;;;;;;;3.33;100.00;99131.09;12730934;23;20049;-79
2021/12/19 23:18:25;;;;;;;9.75;5.50;;;;;;;3.28;100.00;99128.38;12739378;23;20028;-85
2021/12/19 23:23:26;;;;;;;8.18;4.90;;;;;;;3.31;100.00;99129.75;12783078;23;19998;-84
2021/12/19 23:28:26;;;;;;;8.40;5.30;;;;;;;3.16;100.00;99122.47;12784969;23;20069;-84
2021/12/19 23:49:22;;;;;;;9.70;5.28;;;;;;;2.94;100.00;99135.81;12739591;23;20018;-79
2021/12/19 23:54:24;;;;;;;10.70;5.93;;;;;;;2.91;100.00;99154.06;12745146;23;20045;-81
2021/12/19 23:59:24;;;;;;;11.57;6.15;;;;;;;2.89;100.00;99149.00;12709795;23;20422;-78
